Search for airport 
image banner adimage banner adimage banner ad
image banner ad

CL24 - Kindsvater Ranch

Located in Clovis, United States

ICAO - CL24, IATA -

Data provided by Airmate  

General information

Coordinates: N36°50'60" W119°30'36"
Elevation is 529 feet MSL.
Magnetic variation is 15° East
View others Airports in California

Operational data

Special qualification required
Current time UTC:
Current local time:
Weather at : KFAT - Fresno Yosemite Intl ( 20 km )
METAR: KFAT 240853Z 30011KT 10SM CLR 22/12 A2992 RMK AO2 SLP128 T02170117 51012 $
TAF: KFAT 240520Z 2406/2506 30007KT P6SM SKC TEMPO 2408/2412 30012KT
View NOTAMs / SUP AIP / TFR affecting this airport [VIEW]
Communications frequencies: [VIEW]

Runways:

RWY identifierQFULength (ft)Width (ft)SurfaceLDA (ft)
02200064EARTH
20200064EARTH

Airport contact information

Address: Clovis United States

Satellite view of CL24